Portada
METAR-TAF:

METAR-TAF

Aeropuertos :

Toulouse, Francia

Aeropuerto de Toulouse-Blagnac

latitud: 43-38N, longitud: 001-22E, altitud: 152 m

Observación

El informe se hizo hace 20 minutos, a las 08:00 UTC
Viento 6 kt del sur
Temperatura 10°C
Humedad 93%
Presión 1026 hPa
Visibilidad 10 km o más
Escasas nubes a una altura de 300 ft

METAR: LFBO 280800Z AUTO 19006KT 9999 FEW003 10/09 Q1026 NOSIG

Hora: 10:20 (08:20 UTC)

Pronóstico

El informe se hizo hace 3 horas y 20 minutos, a las 05:00 UTC
Pronóstico válido del 28 a las 06 UTC al 29 a las 12 UTC
Viento 5 kt del sur-suroeste
Visibilidad: 0800 m
niebla
Probabilidad 30% :
Temporalmente
del 28 a las 06 UTC al 28 a las 08 UTC
Visibilidad: 0400 m
niebla
Evolucionando progresivamente
del 28 a las 08 UTC al 28 a las 10 UTC
Visibilidad 10 km o más
sin nubes por debajo de 1500 m y sin presencia de cumulonimbus.

TAF: LFBO 280500Z 2806/2912 20005KT 0800 FG VV/// PROB30 TEMPO 2806/2808 0400 FG VV/// BECMG 2808/2810 CAVOK

Observaciones y pronósticos meteorológicos de más de 4000 aeropuertos (mensajes METAR y TAF).

Los puntos amarillos y rojos representan las estaciones disponibles.

Ponga el ratón en el punto deseado para ver el nombre de la estación.

Haga clic para ver las observaciones y los pronósticos meteorológicos.

Para cambiar el mapa : haga clic en los botones verdes con una cruz de color negro para hacer un zoom, en el botón verde con un guión para alejar o en las flechas verdes para mapas adyacentes.


METAR-TAF: